YSNW/NOA METAR and TAF weather

Enter ICAO airport designator
Station Type Date Time Source
YSNW METAR 2019/05/25 09:00 UTC NOAA

YSNW 250900Z AUTO 33005KT 9999 // NCD 15/05 Q1015


Station Type Date Time Source
YSNW Decoded METAR 2019/05/25 09:00 UTC NOAA

Nowra Ran Air Station, Australia (YSNW) 34-57S 150-32E 110M
May 25, 2019 - 05:00 AM EDT / 2019.05.25 0900 UTC
Wind: from the NNW (330 degrees) at 6 MPH (5 KT):0
Visibility: greater than 7 mile(s):0
Temperature: 59 F (15 C)
Dew Point: 41 F (5 C)
Relative Humidity: 51%
Pressure (altimeter): 29.97 in. Hg (1015 hPa)
ob: YSNW 250900Z AUTO 33005KT 9999 // NCD 15/05 Q1015
cycle: 9

Station Type Date Time Source
YSNW TAF UTC NOAA

Error!

Example: see airport list